sensor_id;sensor_type;location;lat;lon;timestamp;P1;durP1;ratioP1;P2;durP2;ratioP2
37047;SDS011;23227;48.780;9.210;2024-03-07T00:00:13;3.87;;;1.17;;
37047;SDS011;23227;48.780;9.210;2024-03-07T00:03:18;3.50;;;0.90;;
37047;SDS011;23227;48.780;9.210;2024-03-07T00:06:22;2.53;;;1.30;;
37047;SDS011;23227;48.780;9.210;2024-03-07T00:09:25;3.53;;;1.10;;
37047;SDS011;23227;48.780;9.210;2024-03-07T00:12:27;1.40;;;1.00;;
37047;SDS011;23227;48.780;9.210;2024-03-07T00:15:31;2.97;;;1.17;;
37047;SDS011;23227;48.780;9.210;2024-03-07T00:18:33;2.88;;;1.23;;
37047;SDS011;23227;48.780;9.210;2024-03-07T00:21:37;2.42;;;1.20;;
37047;SDS011;23227;48.780;9.210;2024-03-07T00:24:40;1.17;;;0.83;;
37047;SDS011;23227;48.780;9.210;2024-03-07T00:27:44;1.23;;;1.00;;
37047;SDS011;23227;48.780;9.210;2024-03-07T00:33:50;1.73;;;1.20;;
37047;SDS011;23227;48.780;9.210;2024-03-07T00:37:11;1.73;;;1.00;;
37047;SDS011;23227;48.780;9.210;2024-03-07T00:40:14;1.50;;;1.17;;
37047;SDS011;23227;48.780;9.210;2024-03-07T00:43:16;2.05;;;1.15;;
37047;SDS011;23227;48.780;9.210;2024-03-07T00:46:19;1.95;;;1.17;;
37047;SDS011;23227;48.780;9.210;2024-03-07T00:49:22;2.35;;;1.55;;
37047;SDS011;23227;48.780;9.210;2024-03-07T00:52:26;1.73;;;1.17;;
37047;SDS011;23227;48.780;9.210;2024-03-07T00:55:28;2.77;;;0.90;;
37047;SDS011;23227;48.780;9.210;2024-03-07T00:58:31;1.52;;;1.30;;
37047;SDS011;23227;48.780;9.210;2024-03-07T01:01:34;2.75;;;1.23;;
37047;SDS011;23227;48.780;9.210;2024-03-07T01:04:37;1.50;;;1.20;;
37047;SDS011;23227;48.780;9.210;2024-03-07T01:07:41;1.88;;;1.30;;
37047;SDS011;23227;48.780;9.210;2024-03-07T01:10:46;2.57;;;1.20;;
37047;SDS011;23227;48.780;9.210;2024-03-07T01:16:51;1.80;;;1.10;;
37047;SDS011;23227;48.780;9.210;2024-03-07T01:19:55;1.87;;;1.17;;
37047;SDS011;23227;48.780;9.210;2024-03-07T01:23:00;1.77;;;1.20;;
37047;SDS011;23227;48.780;9.210;2024-03-07T01:26:03;1.83;;;1.43;;
37047;SDS011;23227;48.780;9.210;2024-03-07T01:29:05;1.40;;;1.17;;
37047;SDS011;23227;48.780;9.210;2024-03-07T01:32:08;4.13;;;1.30;;
37047;SDS011;23227;48.780;9.210;2024-03-07T01:35:11;2.53;;;1.30;;
37047;SDS011;23227;48.780;9.210;2024-03-07T01:38:16;1.80;;;1.50;;
37047;SDS011;23227;48.780;9.210;2024-03-07T01:41:18;1.23;;;1.00;;
37047;SDS011;23227;48.780;9.210;2024-03-07T01:44:21;2.08;;;1.25;;
37047;SDS011;23227;48.780;9.210;2024-03-07T01:47:24;1.33;;;1.20;;
37047;SDS011;23227;48.780;9.210;2024-03-07T01:50:26;2.10;;;1.33;;
37047;SDS011;23227;48.780;9.210;2024-03-07T01:53:31;1.52;;;1.35;;
37047;SDS011;23227;48.780;9.210;2024-03-07T01:56:34;1.73;;;1.33;;
37047;SDS011;23227;48.780;9.210;2024-03-07T01:59:38;2.00;;;1.33;;
37047;SDS011;23227;48.780;9.210;2024-03-07T02:02:41;2.58;;;1.27;;
37047;SDS011;23227;48.780;9.210;2024-03-07T02:05:44;3.97;;;1.60;;
37047;SDS011;23227;48.780;9.210;2024-03-07T02:11:51;1.93;;;1.37;;
37047;SDS011;23227;48.780;9.210;2024-03-07T02:14:53;2.20;;;1.40;;
37047;SDS011;23227;48.780;9.210;2024-03-07T02:17:56;1.88;;;1.40;;
37047;SDS011;23227;48.780;9.210;2024-03-07T02:21:00;1.83;;;1.38;;
37047;SDS011;23227;48.780;9.210;2024-03-07T02:24:08;1.67;;;1.30;;
37047;SDS011;23227;48.780;9.210;2024-03-07T02:27:10;2.08;;;1.52;;
37047;SDS011;23227;48.780;9.210;2024-03-07T02:30:13;1.75;;;1.35;;
37047;SDS011;23227;48.780;9.210;2024-03-07T02:33:16;1.75;;;1.40;;
37047;SDS011;23227;48.780;9.210;2024-03-07T02:36:20;2.95;;;1.70;;
37047;SDS011;23227;48.780;9.210;2024-03-07T02:39:23;2.60;;;1.50;;
37047;SDS011;23227;48.780;9.210;2024-03-07T02:42:26;2.83;;;1.63;;
37047;SDS011;23227;48.780;9.210;2024-03-07T02:45:28;1.90;;;1.70;;
37047;SDS011;23227;48.780;9.210;2024-03-07T02:48:31;2.28;;;1.45;;
37047;SDS011;23227;48.780;9.210;2024-03-07T02:51:36;1.95;;;1.65;;
37047;SDS011;23227;48.780;9.210;2024-03-07T02:54:39;1.50;;;1.20;;
37047;SDS011;23227;48.780;9.210;2024-03-07T02:57:41;2.15;;;1.50;;
37047;SDS011;23227;48.780;9.210;2024-03-07T03:00:44;5.82;;;1.90;;
37047;SDS011;23227;48.780;9.210;2024-03-07T03:03:46;2.88;;;1.90;;
37047;SDS011;23227;48.780;9.210;2024-03-07T03:06:50;3.80;;;1.70;;
37047;SDS011;23227;48.780;9.210;2024-03-07T03:09:53;2.83;;;2.17;;
37047;SDS011;23227;48.780;9.210;2024-03-07T03:12:56;2.85;;;1.77;;
37047;SDS011;23227;48.780;9.210;2024-03-07T03:16:01;3.40;;;1.70;;
37047;SDS011;23227;48.780;9.210;2024-03-07T03:19:04;2.80;;;1.90;;
37047;SDS011;23227;48.780;9.210;2024-03-07T03:22:08;2.00;;;1.70;;
37047;SDS011;23227;48.780;9.210;2024-03-07T03:25:10;9.20;;;2.40;;
37047;SDS011;23227;48.780;9.210;2024-03-07T03:28:13;2.42;;;1.83;;
37047;SDS011;23227;48.780;9.210;2024-03-07T03:31:16;2.63;;;1.83;;
37047;SDS011;23227;48.780;9.210;2024-03-07T03:34:18;2.65;;;1.65;;
37047;SDS011;23227;48.780;9.210;2024-03-07T03:37:23;3.03;;;1.90;;
37047;SDS011;23227;48.780;9.210;2024-03-07T03:40:26;2.77;;;2.10;;
37047;SDS011;23227;48.780;9.210;2024-03-07T03:43:30;2.13;;;1.80;;
37047;SDS011;23227;48.780;9.210;2024-03-07T03:46:34;2.45;;;2.03;;
37047;SDS011;23227;48.780;9.210;2024-03-07T03:49:36;2.35;;;1.88;;
37047;SDS011;23227;48.780;9.210;2024-03-07T03:52:40;2.90;;;2.00;;
37047;SDS011;23227;48.780;9.210;2024-03-07T03:55:43;2.13;;;1.80;;
37047;SDS011;23227;48.780;9.210;2024-03-07T03:58:45;2.97;;;2.05;;
37047;SDS011;23227;48.780;9.210;2024-03-07T04:01:48;3.17;;;2.22;;
37047;SDS011;23227;48.780;9.210;2024-03-07T04:04:51;2.25;;;1.92;;
37047;SDS011;23227;48.780;9.210;2024-03-07T04:10:58;2.83;;;2.17;;
37047;SDS011;23227;48.780;9.210;2024-03-07T04:14:00;2.80;;;2.50;;
37047;SDS011;23227;48.780;9.210;2024-03-07T04:17:03;4.35;;;2.47;;
37047;SDS011;23227;48.780;9.210;2024-03-07T04:20:08;3.33;;;2.57;;
37047;SDS011;23227;48.780;9.210;2024-03-07T04:23:13;2.53;;;2.13;;
37047;SDS011;23227;48.780;9.210;2024-03-07T04:26:16;2.50;;;2.07;;
37047;SDS011;23227;48.780;9.210;2024-03-07T04:29:19;2.85;;;2.40;;
37047;SDS011;23227;48.780;9.210;2024-03-07T04:32:21;2.55;;;2.08;;
37047;SDS011;23227;48.780;9.210;2024-03-07T04:35:24;2.95;;;2.20;;
37047;SDS011;23227;48.780;9.210;2024-03-07T04:38:28;3.15;;;2.42;;
37047;SDS011;23227;48.780;9.210;2024-03-07T04:41:31;3.40;;;2.23;;
37047;SDS011;23227;48.780;9.210;2024-03-07T04:44:34;2.78;;;2.05;;
37047;SDS011;23227;48.780;9.210;2024-03-07T04:47:38;5.63;;;2.60;;
37047;SDS011;23227;48.780;9.210;2024-03-07T04:53:45;2.63;;;2.03;;
37047;SDS011;23227;48.780;9.210;2024-03-07T04:56:49;3.37;;;2.60;;
37047;SDS011;23227;48.780;9.210;2024-03-07T04:59:52;4.10;;;2.17;;
37047;SDS011;23227;48.780;9.210;2024-03-07T05:02:55;2.35;;;1.92;;
37047;SDS011;23227;48.780;9.210;2024-03-07T05:05:58;2.10;;;1.90;;
37047;SDS011;23227;48.780;9.210;2024-03-07T05:09:04;2.38;;;1.83;;
37047;SDS011;23227;48.780;9.210;2024-03-07T05:12:08;2.30;;;2.07;;
37047;SDS011;23227;48.780;9.210;2024-03-07T05:15:11;3.45;;;2.45;;
37047;SDS011;23227;48.780;9.210;2024-03-07T05:18:13;4.25;;;2.28;;
37047;SDS011;23227;48.780;9.210;2024-03-07T05:24:42;18.77;;;12.53;;
37047;SDS011;23227;48.780;9.210;2024-03-07T05:27:45;24.17;;;13.80;;
37047;SDS011;23227;48.780;9.210;2024-03-07T05:30:48;23.13;;;13.98;;
37047;SDS011;23227;48.780;9.210;2024-03-07T05:33:50;25.05;;;15.00;;
37047;SDS011;23227;48.780;9.210;2024-03-07T05:36:53;24.08;;;15.45;;
37047;SDS011;23227;48.780;9.210;2024-03-07T05:39:57;19.75;;;12.65;;
37047;SDS011;23227;48.780;9.210;2024-03-07T05:43:01;18.13;;;11.13;;
37047;SDS011;23227;48.780;9.210;2024-03-07T05:46:03;13.55;;;8.75;;
37047;SDS011;23227;48.780;9.210;2024-03-07T05:49:08;12.20;;;8.37;;
37047;SDS011;23227;48.780;9.210;2024-03-07T05:52:10;8.55;;;6.45;;
37047;SDS011;23227;48.780;9.210;2024-03-07T05:55:15;9.27;;;6.90;;
37047;SDS011;23227;48.780;9.210;2024-03-07T05:58:20;10.10;;;5.80;;
37047;SDS011;23227;48.780;9.210;2024-03-07T06:01:22;8.52;;;5.65;;
37047;SDS011;23227;48.780;9.210;2024-03-07T06:04:26;10.03;;;5.73;;
37047;SDS011;23227;48.780;9.210;2024-03-07T06:07:30;11.00;;;5.47;;
37047;SDS011;23227;48.780;9.210;2024-03-07T06:16:40;8.87;;;5.40;;
37047;SDS011;23227;48.780;9.210;2024-03-07T06:19:43;9.57;;;5.70;;
37047;SDS011;23227;48.780;9.210;2024-03-07T06:22:45;8.75;;;5.80;;
37047;SDS011;23227;48.780;9.210;2024-03-07T06:25:49;9.10;;;5.22;;
37047;SDS011;23227;48.780;9.210;2024-03-07T06:28:52;7.73;;;4.70;;
37047;SDS011;23227;48.780;9.210;2024-03-07T06:31:55;7.63;;;5.38;;
37047;SDS011;23227;48.780;9.210;2024-03-07T06:34:58;7.13;;;4.63;;
37047;SDS011;23227;48.780;9.210;2024-03-07T06:38:02;5.93;;;4.93;;
37047;SDS011;23227;48.780;9.210;2024-03-07T06:41:06;6.55;;;4.32;;
37047;SDS011;23227;48.780;9.210;2024-03-07T06:44:11;6.43;;;4.33;;
37047;SDS011;23227;48.780;9.210;2024-03-07T06:47:14;8.02;;;4.40;;
37047;SDS011;23227;48.780;9.210;2024-03-07T06:50:18;6.33;;;4.10;;
37047;SDS011;23227;48.780;9.210;2024-03-07T06:53:36;6.20;;;4.20;;
37047;SDS011;23227;48.780;9.210;2024-03-07T06:59:45;8.60;;;4.43;;
37047;SDS011;23227;48.780;9.210;2024-03-07T07:02:48;5.65;;;4.60;;
37047;SDS011;23227;48.780;9.210;2024-03-07T07:05:51;5.23;;;3.87;;
37047;SDS011;23227;48.780;9.210;2024-03-07T07:08:55;7.13;;;3.90;;
37047;SDS011;23227;48.780;9.210;2024-03-07T07:12:01;5.70;;;4.27;;
37047;SDS011;23227;48.780;9.210;2024-03-07T07:15:04;5.97;;;4.53;;
37047;SDS011;23227;48.780;9.210;2024-03-07T07:21:12;4.77;;;3.90;;
37047;SDS011;23227;48.780;9.210;2024-03-07T07:24:17;5.00;;;3.60;;
37047;SDS011;23227;48.780;9.210;2024-03-07T07:30:24;6.87;;;4.70;;
37047;SDS011;23227;48.780;9.210;2024-03-07T07:33:28;5.43;;;3.73;;
37047;SDS011;23227;48.780;9.210;2024-03-07T07:36:31;5.93;;;3.92;;
37047;SDS011;23227;48.780;9.210;2024-03-07T07:39:33;6.47;;;3.75;;
37047;SDS011;23227;48.780;9.210;2024-03-07T07:42:38;5.05;;;3.88;;
37047;SDS011;23227;48.780;9.210;2024-03-07T07:45:41;4.43;;;3.93;;
37047;SDS011;23227;48.780;9.210;2024-03-07T07:48:43;7.22;;;4.03;;
37047;SDS011;23227;48.780;9.210;2024-03-07T07:54:50;6.80;;;3.80;;
37047;SDS011;23227;48.780;9.210;2024-03-07T07:57:55;5.60;;;3.80;;
37047;SDS011;23227;48.780;9.210;2024-03-07T08:00:58;4.37;;;3.80;;
37047;SDS011;23227;48.780;9.210;2024-03-07T08:04:01;6.38;;;3.63;;
37047;SDS011;23227;48.780;9.210;2024-03-07T08:07:03;3.88;;;3.47;;
37047;SDS011;23227;48.780;9.210;2024-03-07T08:10:09;7.03;;;4.03;;
37047;SDS011;23227;48.780;9.210;2024-03-07T08:16:16;4.67;;;3.60;;
37047;SDS011;23227;48.780;9.210;2024-03-07T08:19:18;6.60;;;3.88;;
37047;SDS011;23227;48.780;9.210;2024-03-07T08:25:25;5.53;;;3.08;;
37047;SDS011;23227;48.780;9.210;2024-03-07T08:28:30;4.57;;;3.50;;
37047;SDS011;23227;48.780;9.210;2024-03-07T08:31:32;4.50;;;3.53;;
37047;SDS011;23227;48.780;9.210;2024-03-07T08:34:35;6.82;;;3.28;;
37047;SDS011;23227;48.780;9.210;2024-03-07T08:37:38;4.25;;;3.40;;
37047;SDS011;23227;48.780;9.210;2024-03-07T08:43:45;5.40;;;3.58;;
37047;SDS011;23227;48.780;9.210;2024-03-07T08:46:47;4.80;;;3.50;;
37047;SDS011;23227;48.780;9.210;2024-03-07T08:49:50;4.13;;;3.30;;
37047;SDS011;23227;48.780;9.210;2024-03-07T08:52:52;4.93;;;3.20;;
37047;SDS011;23227;48.780;9.210;2024-03-07T08:55:55;4.72;;;3.25;;
37047;SDS011;23227;48.780;9.210;2024-03-07T08:59:01;4.50;;;3.43;;
37047;SDS011;23227;48.780;9.210;2024-03-07T09:02:04;4.17;;;3.37;;
37047;SDS011;23227;48.780;9.210;2024-03-07T09:05:06;3.70;;;3.20;;
37047;SDS011;23227;48.780;9.210;2024-03-07T09:08:12;4.93;;;3.33;;
37047;SDS011;23227;48.780;9.210;2024-03-07T09:11:14;3.77;;;3.37;;
37047;SDS011;23227;48.780;9.210;2024-03-07T09:14:18;3.88;;;3.17;;
37047;SDS011;23227;48.780;9.210;2024-03-07T09:17:22;3.33;;;2.80;;
37047;SDS011;23227;48.780;9.210;2024-03-07T09:20:25;3.53;;;3.10;;
37047;SDS011;23227;48.780;9.210;2024-03-07T09:23:28;3.20;;;2.90;;
37047;SDS011;23227;48.780;9.210;2024-03-07T09:26:31;3.47;;;2.83;;
37047;SDS011;23227;48.780;9.210;2024-03-07T09:29:36;3.63;;;2.90;;
37047;SDS011;23227;48.780;9.210;2024-03-07T09:32:39;4.53;;;2.80;;
37047;SDS011;23227;48.780;9.210;2024-03-07T09:35:43;4.43;;;3.40;;
37047;SDS011;23227;48.780;9.210;2024-03-07T09:38:45;3.60;;;2.95;;
37047;SDS011;23227;48.780;9.210;2024-03-07T09:41:48;3.95;;;3.20;;
37047;SDS011;23227;48.780;9.210;2024-03-07T09:44:54;5.40;;;3.03;;
37047;SDS011;23227;48.780;9.210;2024-03-07T09:47:57;3.87;;;3.20;;
37047;SDS011;23227;48.780;9.210;2024-03-07T09:51:00;4.43;;;3.15;;
37047;SDS011;23227;48.780;9.210;2024-03-07T09:54:05;3.80;;;2.83;;
37047;SDS011;23227;48.780;9.210;2024-03-07T09:57:08;4.90;;;3.03;;
37047;SDS011;23227;48.780;9.210;2024-03-07T10:00:13;3.77;;;3.00;;
37047;SDS011;23227;48.780;9.210;2024-03-07T10:03:24;3.88;;;2.88;;
37047;SDS011;23227;48.780;9.210;2024-03-07T10:06:28;3.50;;;2.53;;
37047;SDS011;23227;48.780;9.210;2024-03-07T10:09:32;3.97;;;3.43;;
37047;SDS011;23227;48.780;9.210;2024-03-07T10:12:37;4.23;;;2.80;;
37047;SDS011;23227;48.780;9.210;2024-03-07T10:15:41;3.88;;;2.88;;
37047;SDS011;23227;48.780;9.210;2024-03-07T10:18:44;3.03;;;2.50;;
37047;SDS011;23227;48.780;9.210;2024-03-07T10:24:50;3.37;;;2.63;;
37047;SDS011;23227;48.780;9.210;2024-03-07T10:27:53;4.20;;;3.10;;
37047;SDS011;23227;48.780;9.210;2024-03-07T10:34:00;3.30;;;2.80;;
37047;SDS011;23227;48.780;9.210;2024-03-07T10:37:04;4.20;;;2.87;;
37047;SDS011;23227;48.780;9.210;2024-03-07T10:40:10;3.23;;;2.67;;
37047;SDS011;23227;48.780;9.210;2024-03-07T10:43:19;4.23;;;3.03;;
37047;SDS011;23227;48.780;9.210;2024-03-07T10:46:23;3.80;;;2.87;;
37047;SDS011;23227;48.780;9.210;2024-03-07T10:49:27;3.13;;;2.83;;
37047;SDS011;23227;48.780;9.210;2024-03-07T10:52:35;4.53;;;2.93;;
37047;SDS011;23227;48.780;9.210;2024-03-07T10:55:44;3.43;;;2.80;;
37047;SDS011;23227;48.780;9.210;2024-03-07T10:58:58;3.30;;;2.80;;
37047;SDS011;23227;48.780;9.210;2024-03-07T11:02:09;3.07;;;2.40;;
37047;SDS011;23227;48.780;9.210;2024-03-07T11:08:20;2.77;;;2.47;;
37047;SDS011;23227;48.780;9.210;2024-03-07T11:11:25;3.00;;;2.70;;
37047;SDS011;23227;48.780;9.210;2024-03-07T11:14:29;4.17;;;2.90;;
37047;SDS011;23227;48.780;9.210;2024-03-07T11:17:34;2.80;;;2.47;;
37047;SDS011;23227;48.780;9.210;2024-03-07T11:20:38;3.70;;;2.83;;
37047;SDS011;23227;48.780;9.210;2024-03-07T11:23:43;2.80;;;2.50;;
37047;SDS011;23227;48.780;9.210;2024-03-07T11:26:47;3.37;;;2.97;;
37047;SDS011;23227;48.780;9.210;2024-03-07T11:29:50;3.15;;;2.55;;
37047;SDS011;23227;48.780;9.210;2024-03-07T11:32:57;3.90;;;2.77;;
37047;SDS011;23227;48.780;9.210;2024-03-07T11:36:06;3.13;;;2.50;;
37047;SDS011;23227;48.780;9.210;2024-03-07T11:42:45;3.07;;;2.40;;
37047;SDS011;23227;48.780;9.210;2024-03-07T11:45:49;3.40;;;2.50;;
37047;SDS011;23227;48.780;9.210;2024-03-07T11:48:56;4.63;;;2.80;;
37047;SDS011;23227;48.780;9.210;2024-03-07T11:52:00;2.63;;;2.03;;
37047;SDS011;23227;48.780;9.210;2024-03-07T11:55:06;3.67;;;2.87;;
37047;SDS011;23227;48.780;9.210;2024-03-07T11:58:09;3.97;;;3.10;;
37047;SDS011;23227;48.780;9.210;2024-03-07T12:01:14;3.40;;;2.60;;
37047;SDS011;23227;48.780;9.210;2024-03-07T12:04:19;2.87;;;2.53;;
37047;SDS011;23227;48.780;9.210;2024-03-07T12:07:24;3.17;;;2.40;;
37047;SDS011;23227;48.780;9.210;2024-03-07T12:10:28;2.73;;;2.33;;
37047;SDS011;23227;48.780;9.210;2024-03-07T12:13:31;2.58;;;2.25;;
37047;SDS011;23227;48.780;9.210;2024-03-07T12:19:37;3.17;;;2.40;;
37047;SDS011;23227;48.780;9.210;2024-03-07T12:22:41;2.83;;;2.60;;
37047;SDS011;23227;48.780;9.210;2024-03-07T12:25:44;2.90;;;2.60;;
37047;SDS011;23227;48.780;9.210;2024-03-07T12:28:47;3.45;;;2.67;;
37047;SDS011;23227;48.780;9.210;2024-03-07T12:31:49;3.55;;;2.95;;
37047;SDS011;23227;48.780;9.210;2024-03-07T12:37:56;3.63;;;2.97;;
37047;SDS011;23227;48.780;9.210;2024-03-07T12:41:02;3.92;;;2.70;;
37047;SDS011;23227;48.780;9.210;2024-03-07T12:44:07;3.33;;;2.47;;
37047;SDS011;23227;48.780;9.210;2024-03-07T12:47:14;2.67;;;2.40;;
37047;SDS011;23227;48.780;9.210;2024-03-07T12:50:19;3.00;;;2.70;;
37047;SDS011;23227;48.780;9.210;2024-03-07T12:53:22;3.43;;;2.70;;
37047;SDS011;23227;48.780;9.210;2024-03-07T12:56:27;2.60;;;2.40;;
37047;SDS011;23227;48.780;9.210;2024-03-07T12:59:36;3.60;;;2.70;;
37047;SDS011;23227;48.780;9.210;2024-03-07T13:02:41;2.93;;;2.40;;
37047;SDS011;23227;48.780;9.210;2024-03-07T13:05:47;3.70;;;2.67;;
37047;SDS011;23227;48.780;9.210;2024-03-07T13:08:50;4.13;;;2.70;;
37047;SDS011;23227;48.780;9.210;2024-03-07T13:11:53;3.35;;;2.38;;
37047;SDS011;23227;48.780;9.210;2024-03-07T13:14:56;3.17;;;2.57;;
37047;SDS011;23227;48.780;9.210;2024-03-07T13:18:01;2.70;;;2.20;;
37047;SDS011;23227;48.780;9.210;2024-03-07T13:21:07;3.13;;;2.50;;
37047;SDS011;23227;48.780;9.210;2024-03-07T13:24:12;2.70;;;2.37;;
37047;SDS011;23227;48.780;9.210;2024-03-07T13:27:14;3.72;;;2.20;;
37047;SDS011;23227;48.780;9.210;2024-03-07T13:30:20;2.50;;;2.20;;
37047;SDS011;23227;48.780;9.210;2024-03-07T13:33:28;3.73;;;2.77;;
37047;SDS011;23227;48.780;9.210;2024-03-07T13:36:35;2.60;;;2.40;;
37047;SDS011;23227;48.780;9.210;2024-03-07T13:39:39;2.60;;;2.10;;
37047;SDS011;23227;48.780;9.210;2024-03-07T13:42:44;3.17;;;2.40;;
37047;SDS011;23227;48.780;9.210;2024-03-07T13:45:47;2.72;;;2.22;;
37047;SDS011;23227;48.780;9.210;2024-03-07T13:48:50;3.75;;;2.22;;
37047;SDS011;23227;48.780;9.210;2024-03-07T13:55:04;3.83;;;2.20;;
37047;SDS011;23227;48.780;9.210;2024-03-07T13:58:11;2.50;;;2.07;;
37047;SDS011;23227;48.780;9.210;2024-03-07T14:01:23;2.47;;;2.20;;
37047;SDS011;23227;48.780;9.210;2024-03-07T14:04:45;3.03;;;2.50;;
37047;SDS011;23227;48.780;9.210;2024-03-07T14:08:33;2.80;;;2.30;;
37047;SDS011;23227;48.780;9.210;2024-03-07T14:19:13;2.70;;;2.10;;
37047;SDS011;23227;48.780;9.210;2024-03-07T14:22:31;2.90;;;2.20;;
37047;SDS011;23227;48.780;9.210;2024-03-07T14:25:49;2.20;;;1.90;;
37047;SDS011;23227;48.780;9.210;2024-03-07T14:29:03;2.40;;;2.20;;
37047;SDS011;23227;48.780;9.210;2024-03-07T14:32:12;3.07;;;2.30;;
37047;SDS011;23227;48.780;9.210;2024-03-07T14:35:18;2.07;;;1.87;;
37047;SDS011;23227;48.780;9.210;2024-03-07T14:38:27;2.93;;;2.33;;
37047;SDS011;23227;48.780;9.210;2024-03-07T14:41:43;2.47;;;2.03;;
37047;SDS011;23227;48.780;9.210;2024-03-07T14:44:48;2.53;;;2.03;;
37047;SDS011;23227;48.780;9.210;2024-03-07T14:47:51;2.40;;;2.20;;
37047;SDS011;23227;48.780;9.210;2024-03-07T14:50:54;2.97;;;2.33;;
37047;SDS011;23227;48.780;9.210;2024-03-07T14:57:01;2.73;;;2.33;;
37047;SDS011;23227;48.780;9.210;2024-03-07T15:00:06;2.17;;;1.90;;
37047;SDS011;23227;48.780;9.210;2024-03-07T15:03:33;2.60;;;2.40;;
37047;SDS011;23227;48.780;9.210;2024-03-07T15:06:36;2.38;;;2.15;;
37047;SDS011;23227;48.780;9.210;2024-03-07T15:09:39;2.28;;;1.88;;
37047;SDS011;23227;48.780;9.210;2024-03-07T15:12:42;2.28;;;2.00;;
37047;SDS011;23227;48.780;9.210;2024-03-07T15:15:45;2.50;;;2.23;;
37047;SDS011;23227;48.780;9.210;2024-03-07T15:18:48;2.38;;;2.03;;
37047;SDS011;23227;48.780;9.210;2024-03-07T15:21:51;2.37;;;2.17;;
37047;SDS011;23227;48.780;9.210;2024-03-07T15:24:54;2.60;;;2.40;;
37047;SDS011;23227;48.780;9.210;2024-03-07T15:27:58;2.80;;;1.83;;
37047;SDS011;23227;48.780;9.210;2024-03-07T15:31:01;2.17;;;1.87;;
37047;SDS011;23227;48.780;9.210;2024-03-07T15:34:07;2.23;;;1.93;;
37047;SDS011;23227;48.780;9.210;2024-03-07T15:37:11;2.13;;;1.90;;
37047;SDS011;23227;48.780;9.210;2024-03-07T15:40:16;2.30;;;2.03;;
37047;SDS011;23227;48.780;9.210;2024-03-07T15:46:23;2.20;;;2.00;;
37047;SDS011;23227;48.780;9.210;2024-03-07T15:49:26;2.55;;;2.15;;
37047;SDS011;23227;48.780;9.210;2024-03-07T15:52:28;2.50;;;2.20;;
37047;SDS011;23227;48.780;9.210;2024-03-07T15:55:35;2.30;;;2.00;;
37047;SDS011;23227;48.780;9.210;2024-03-07T15:58:40;2.13;;;1.83;;
37047;SDS011;23227;48.780;9.210;2024-03-07T16:01:43;2.63;;;2.13;;
37047;SDS011;23227;48.780;9.210;2024-03-07T16:07:48;2.20;;;2.00;;
37047;SDS011;23227;48.780;9.210;2024-03-07T16:10:52;3.63;;;2.20;;
37047;SDS011;23227;48.780;9.210;2024-03-07T16:13:56;2.20;;;1.90;;
37047;SDS011;23227;48.780;9.210;2024-03-07T16:16:58;2.47;;;1.87;;
37047;SDS011;23227;48.780;9.210;2024-03-07T16:20:02;2.20;;;2.00;;
37047;SDS011;23227;48.780;9.210;2024-03-07T16:23:06;2.53;;;2.20;;
37047;SDS011;23227;48.780;9.210;2024-03-07T16:26:09;2.03;;;1.83;;
37047;SDS011;23227;48.780;9.210;2024-03-07T16:29:13;2.25;;;1.90;;
37047;SDS011;23227;48.780;9.210;2024-03-07T16:32:16;2.23;;;2.00;;
37047;SDS011;23227;48.780;9.210;2024-03-07T16:35:19;2.45;;;2.10;;
37047;SDS011;23227;48.780;9.210;2024-03-07T16:38:22;2.57;;;2.23;;
37047;SDS011;23227;48.780;9.210;2024-03-07T16:41:25;2.95;;;2.55;;
37047;SDS011;23227;48.780;9.210;2024-03-07T16:44:29;3.30;;;2.00;;
37047;SDS011;23227;48.780;9.210;2024-03-07T16:47:35;1.97;;;1.57;;
37047;SDS011;23227;48.780;9.210;2024-03-07T16:50:38;2.07;;;1.87;;
37047;SDS011;23227;48.780;9.210;2024-03-07T16:53:43;2.20;;;1.87;;
37047;SDS011;23227;48.780;9.210;2024-03-07T16:56:46;3.03;;;2.05;;
37047;SDS011;23227;48.780;9.210;2024-03-07T16:59:50;2.85;;;2.10;;
37047;SDS011;23227;48.780;9.210;2024-03-07T17:02:53;2.43;;;2.03;;
37047;SDS011;23227;48.780;9.210;2024-03-07T17:05:57;2.73;;;1.83;;
37047;SDS011;23227;48.780;9.210;2024-03-07T17:09:02;3.40;;;2.37;;
37047;SDS011;23227;48.780;9.210;2024-03-07T17:12:05;2.23;;;1.87;;
37047;SDS011;23227;48.780;9.210;2024-03-07T17:18:15;2.20;;;1.90;;
37047;SDS011;23227;48.780;9.210;2024-03-07T17:21:18;2.33;;;2.05;;
37047;SDS011;23227;48.780;9.210;2024-03-07T17:24:21;2.30;;;2.08;;
37047;SDS011;23227;48.780;9.210;2024-03-07T17:27:23;2.42;;;2.13;;
37047;SDS011;23227;48.780;9.210;2024-03-07T17:30:27;2.33;;;1.80;;
37047;SDS011;23227;48.780;9.210;2024-03-07T17:33:30;1.90;;;1.70;;
37047;SDS011;23227;48.780;9.210;2024-03-07T17:36:33;2.60;;;2.40;;
37047;SDS011;23227;48.780;9.210;2024-03-07T17:39:36;2.55;;;2.00;;
37047;SDS011;23227;48.780;9.210;2024-03-07T17:42:38;1.77;;;1.50;;
37047;SDS011;23227;48.780;9.210;2024-03-07T17:45:42;1.90;;;1.70;;
37047;SDS011;23227;48.780;9.210;2024-03-07T17:48:45;2.10;;;1.77;;
37047;SDS011;23227;48.780;9.210;2024-03-07T17:51:49;1.90;;;1.70;;
37047;SDS011;23227;48.780;9.210;2024-03-07T17:54:54;2.43;;;1.90;;
37047;SDS011;23227;48.780;9.210;2024-03-07T17:57:57;1.75;;;1.60;;
37047;SDS011;23227;48.780;9.210;2024-03-07T18:01:02;2.40;;;1.80;;
37047;SDS011;23227;48.780;9.210;2024-03-07T18:04:07;2.07;;;1.90;;
37047;SDS011;23227;48.780;9.210;2024-03-07T18:07:10;2.10;;;1.83;;
37047;SDS011;23227;48.780;9.210;2024-03-07T18:10:13;2.20;;;2.00;;
37047;SDS011;23227;48.780;9.210;2024-03-07T18:13:19;2.53;;;2.07;;
37047;SDS011;23227;48.780;9.210;2024-03-07T18:16:23;2.15;;;1.85;;
37047;SDS011;23227;48.780;9.210;2024-03-07T18:19:25;2.07;;;1.77;;
37047;SDS011;23227;48.780;9.210;2024-03-07T18:25:34;1.90;;;1.70;;
37047;SDS011;23227;48.780;9.210;2024-03-07T18:28:37;2.13;;;1.83;;
37047;SDS011;23227;48.780;9.210;2024-03-07T18:31:41;2.33;;;1.88;;
37047;SDS011;23227;48.780;9.210;2024-03-07T18:34:43;2.03;;;1.77;;
37047;SDS011;23227;48.780;9.210;2024-03-07T18:37:51;2.20;;;1.70;;
37047;SDS011;23227;48.780;9.210;2024-03-07T18:40:53;1.85;;;1.55;;
37047;SDS011;23227;48.780;9.210;2024-03-07T18:43:56;2.10;;;1.90;;
37047;SDS011;23227;48.780;9.210;2024-03-07T18:47:00;1.83;;;1.73;;
37047;SDS011;23227;48.780;9.210;2024-03-07T18:50:07;1.40;;;1.30;;
37047;SDS011;23227;48.780;9.210;2024-03-07T18:53:12;2.07;;;1.80;;
37047;SDS011;23227;48.780;9.210;2024-03-07T18:56:17;2.93;;;1.70;;
37047;SDS011;23227;48.780;9.210;2024-03-07T18:59:21;2.47;;;1.70;;
37047;SDS011;23227;48.780;9.210;2024-03-07T19:02:25;2.65;;;1.98;;
37047;SDS011;23227;48.780;9.210;2024-03-07T19:05:28;1.70;;;1.60;;
37047;SDS011;23227;48.780;9.210;2024-03-07T19:08:32;13.40;;;8.70;;
37047;SDS011;23227;48.780;9.210;2024-03-07T19:11:35;14.67;;;8.73;;
37047;SDS011;23227;48.780;9.210;2024-03-07T19:14:39;10.20;;;5.53;;
37047;SDS011;23227;48.780;9.210;2024-03-07T19:17:45;7.07;;;4.20;;
37047;SDS011;23227;48.780;9.210;2024-03-07T19:20:52;7.13;;;3.93;;
37047;SDS011;23227;48.780;9.210;2024-03-07T19:23:56;5.53;;;3.70;;
37047;SDS011;23227;48.780;9.210;2024-03-07T19:27:01;8.17;;;3.60;;
37047;SDS011;23227;48.780;9.210;2024-03-07T19:30:09;5.07;;;3.43;;
37047;SDS011;23227;48.780;9.210;2024-03-07T19:33:14;6.10;;;3.63;;
37047;SDS011;23227;48.780;9.210;2024-03-07T19:36:17;3.60;;;3.00;;
37047;SDS011;23227;48.780;9.210;2024-03-07T19:39:20;3.75;;;2.92;;
37047;SDS011;23227;48.780;9.210;2024-03-07T19:42:23;6.07;;;3.53;;
37047;SDS011;23227;48.780;9.210;2024-03-07T19:45:26;4.07;;;3.13;;
37047;SDS011;23227;48.780;9.210;2024-03-07T19:48:30;4.03;;;3.28;;
37047;SDS011;23227;48.780;9.210;2024-03-07T19:51:34;7.17;;;3.63;;
37047;SDS011;23227;48.780;9.210;2024-03-07T19:54:37;5.30;;;3.37;;
37047;SDS011;23227;48.780;9.210;2024-03-07T19:57:40;4.13;;;3.27;;
37047;SDS011;23227;48.780;9.210;2024-03-07T20:00:43;5.30;;;2.93;;